White Mary — HOHY — position and weather

sailwx.info

Track history (hours):
 
Tides and Currents Weather Stations Pressure Air Temp Water Temp Dewpoint Dewpoint Depression Visibility Wind Speed Wind Dir Waves Ship Positions

White Mary

Last reported at 2017-Oct-02 12:50 UTC. Time now 2017-Oct-18 17:01 UTC.
Position N 34°56' E 139°26'.
Warning: this ship's position is 16 days out of date.

Length 110 m; draft 7 m.

Type: Cargo ship. MMSI: 370220000.

Date/timePositionNaut miles runAvg speedWind from/ knotsBaromVisibWave heightAir tempDewpointWater temp
2017-Oct-02 12:50N 34°56' E 139°26'4 9.9
2017-Oct-02 12:27N 34°59' E 139°30'610.4
2017-Oct-02 11:51N 35°02' E 139°36'410.9
2017-Oct-02 11:30N 35°05' E 139°40'511.1
2017-Oct-02 11:00N 35°09' E 139°44'611.3
2017-Oct-02 10:30N 35°14' E 139°46'510.8
2017-Oct-02 10:00N 35°19' E 139°43'510.3
2017-Oct-02 09:30N 35°24' E 139°42'4 7.6
2017-Oct-02 09:00N 35°28' E 139°42'0 0.2
2017-Oct-02 08:30N 35°28' E 139°42'0 0.0
2017-Oct-02 08:00N 35°28' E 139°42'0 0.0
2017-Oct-02 07:27N 35°28' E 139°42'0 0.0
2017-Oct-02 07:00N 35°28' E 139°42'0 0.0
2017-Oct-02 06:30N 35°28' E 139°42'0 0.0
2017-Oct-02 06:00N 35°28' E 139°42'0 0.0
2017-Oct-02 05:27N 35°28' E 139°42'0 0.0
2017-Oct-02 04:54N 35°28' E 139°42'0 0.0
2017-Oct-02 04:30N 35°28' E 139°42'0 0.0
2017-Oct-02 04:00N 35°28' E 139°42'0 0.0
2017-Oct-02 03:30N 35°28' E 139°42'0 0.0
2017-Oct-02 03:00N 35°28' E 139°42'0 0.0
2017-Oct-02 02:30N 35°28' E 139°42'0 0.0
2017-Oct-02 02:00N 35°28' E 139°42'0 0.0
2017-Oct-02 01:30N 35°28' E 139°42'0 0.0
2017-Oct-02 01:00N 35°28' E 139°42'0 0.0
2017-Oct-02 00:30N 35°28' E 139°42'0 0.0
2017-Oct-02 00:00N 35°28' E 139°42'0 0.0
2017-Oct-01 23:30N 35°28' E 139°42'0 0.0
2017-Oct-01 23:00N 35°28' E 139°42'0 0.0
2017-Oct-01 22:30N 35°28' E 139°42'0 0.4
2017-Oct-01 22:00N 35°28' E 139°42'3 5.4
2017-Oct-01 21:30N 35°25' E 139°43'0 1.0
2017-Oct-01 21:00N 35°25' E 139°42'0 0.0
2017-Oct-01 20:30N 35°25' E 139°42'0 0.0
2017-Oct-01 20:00N 35°25' E 139°42'0 0.0
2017-Oct-01 19:30N 35°25' E 139°42'0 0.0
2017-Oct-01 19:00N 35°25' E 139°42'0 0.0
2017-Oct-01 18:30N 35°25' E 139°42'0 0.0
2017-Oct-01 18:00N 35°25' E 139°42'0 0.1
2017-Oct-01 17:30N 35°25' E 139°42'1 1.3
2017-Oct-01 17:00N 35°26' E 139°42'5 9.4
2017-Oct-01 16:30N 35°21' E 139°43'611.2
2017-Oct-01 16:00N 35°16' E 139°46'611.0
2017-Oct-01 15:30N 35°11' E 139°47'611.3
2017-Oct-01 15:00N 35°05' E 139°44'611.4
2017-Oct-01 14:30N 35°02' E 139°39'611.7
2017-Oct-01 14:00N 34°58' E 139°34'712.7
2017-Oct-01 13:29N 34°54' E 139°27'209 5.9
2017-Sep-30 01:50N 34°40' E 135°14'0 0.0
2017-Sep-30 01:26N 34°40' E 135°14'0 0.1
2017-Sep-30 00:56N 34°40' E 135°14'1 2.0
2017-Sep-30 00:30N 34°40' E 135°15'4 7.5
2017-Sep-30 00:00N 34°37' E 135°16'510.7
2017-Sep-29 23:30N 34°35' E 135°10'611.7
2017-Sep-29 23:00N 34°36' E 135°03'611.1
2017-Sep-29 22:30N 34°36' E 134°56'  
2017-Sep-25 07:52N 34°36' E 134°55'3 9.5
2017-Sep-25 07:30N 34°37' E 134°59'4 8.6
2017-Sep-25 07:00N 34°36' E 135°04'510.4
2017-Sep-25 06:30N 34°36' E 135°10'611.1
2017-Sep-25 06:00N 34°36' E 135°17'510.8
2017-Sep-25 05:30N 34°36' E 135°24'3 5.9
2017-Sep-25 05:00N 34°35' E 135°27'0 0.0
2017-Sep-23 22:05N 34°35' E 135°27'0 0.6
2017-Sep-23 22:00N 34°35' E 135°27'2 4.8
2017-Sep-23 21:30N 34°36' E 135°24'2 2.4
2017-Sep-23 20:51N 34°36' E 135°22'0 0.1
2017-Sep-23 20:20N 34°36' E 135°22'0 0.0
2017-Sep-23 19:33N 34°36' E 135°22'  
Track history (hours):
 
Tides and Currents Weather Stations Pressure Air Temp Water Temp Dewpoint Dewpoint Depression Visibility Wind Speed Wind Dir Waves Ship Positions

White Mary

Last reported at 2017-Oct-02 12:50 UTC. Time now 2017-Oct-18 17:01 UTC.
Position N 34°56' E 139°26'.
Warning: this ship's position is 16 days out of date.

Length 110 m; draft 7 m.

Type: Cargo ship. MMSI: 370220000.

Date/timePositionNaut miles runAvg speedWind from/ knotsBaromVisibWave heightAir tempDewpointWater temp
2017-Oct-02 12:50N 34°56' E 139°26'4 9.9
2017-Oct-02 12:27N 34°59' E 139°30'610.4
2017-Oct-02 11:51N 35°02' E 139°36'410.9
2017-Oct-02 11:30N 35°05' E 139°40'511.1
2017-Oct-02 11:00N 35°09' E 139°44'611.3
2017-Oct-02 10:30N 35°14' E 139°46'510.8
2017-Oct-02 10:00N 35°19' E 139°43'510.3
2017-Oct-02 09:30N 35°24' E 139°42'4 7.6
2017-Oct-02 09:00N 35°28' E 139°42'0 0.2
2017-Oct-02 08:30N 35°28' E 139°42'0 0.0
2017-Oct-02 08:00N 35°28' E 139°42'0 0.0
2017-Oct-02 07:27N 35°28' E 139°42'0 0.0
2017-Oct-02 07:00N 35°28' E 139°42'0 0.0
2017-Oct-02 06:30N 35°28' E 139°42'0 0.0
2017-Oct-02 06:00N 35°28' E 139°42'0 0.0
2017-Oct-02 05:27N 35°28' E 139°42'0 0.0
2017-Oct-02 04:54N 35°28' E 139°42'0 0.0
2017-Oct-02 04:30N 35°28' E 139°42'0 0.0
2017-Oct-02 04:00N 35°28' E 139°42'0 0.0
2017-Oct-02 03:30N 35°28' E 139°42'0 0.0
2017-Oct-02 03:00N 35°28' E 139°42'0 0.0
2017-Oct-02 02:30N 35°28' E 139°42'0 0.0
2017-Oct-02 02:00N 35°28' E 139°42'0 0.0
2017-Oct-02 01:30N 35°28' E 139°42'0 0.0
2017-Oct-02 01:00N 35°28' E 139°42'0 0.0
2017-Oct-02 00:30N 35°28' E 139°42'0 0.0
2017-Oct-02 00:00N 35°28' E 139°42'0 0.0
2017-Oct-01 23:30N 35°28' E 139°42'0 0.0
2017-Oct-01 23:00N 35°28' E 139°42'0 0.0
2017-Oct-01 22:30N 35°28' E 139°42'0 0.4
2017-Oct-01 22:00N 35°28' E 139°42'3 5.4
2017-Oct-01 21:30N 35°25' E 139°43'0 1.0
2017-Oct-01 21:00N 35°25' E 139°42'0 0.0
2017-Oct-01 20:30N 35°25' E 139°42'0 0.0
2017-Oct-01 20:00N 35°25' E 139°42'0 0.0
2017-Oct-01 19:30N 35°25' E 139°42'0 0.0
2017-Oct-01 19:00N 35°25' E 139°42'0 0.0
2017-Oct-01 18:30N 35°25' E 139°42'0 0.0
2017-Oct-01 18:00N 35°25' E 139°42'0 0.1
2017-Oct-01 17:30N 35°25' E 139°42'1 1.3
2017-Oct-01 17:00N 35°26' E 139°42'5 9.4
2017-Oct-01 16:30N 35°21' E 139°43'611.2
2017-Oct-01 16:00N 35°16' E 139°46'611.0
2017-Oct-01 15:30N 35°11' E 139°47'611.3
2017-Oct-01 15:00N 35°05' E 139°44'611.4
2017-Oct-01 14:30N 35°02' E 139°39'611.7
2017-Oct-01 14:00N 34°58' E 139°34'712.7
2017-Oct-01 13:29N 34°54' E 139°27'209 5.9
2017-Sep-30 01:50N 34°40' E 135°14'0 0.0
2017-Sep-30 01:26N 34°40' E 135°14'0 0.1
2017-Sep-30 00:56N 34°40' E 135°14'1 2.0
2017-Sep-30 00:30N 34°40' E 135°15'4 7.5
2017-Sep-30 00:00N 34°37' E 135°16'510.7
2017-Sep-29 23:30N 34°35' E 135°10'611.7
2017-Sep-29 23:00N 34°36' E 135°03'611.1
2017-Sep-29 22:30N 34°36' E 134°56'  
2017-Sep-25 07:52N 34°36' E 134°55'3 9.5
2017-Sep-25 07:30N 34°37' E 134°59'4 8.6
2017-Sep-25 07:00N 34°36' E 135°04'510.4
2017-Sep-25 06:30N 34°36' E 135°10'611.1
2017-Sep-25 06:00N 34°36' E 135°17'510.8
2017-Sep-25 05:30N 34°36' E 135°24'3 5.9
2017-Sep-25 05:00N 34°35' E 135°27'0 0.0
2017-Sep-23 22:05N 34°35' E 135°27'0 0.6
2017-Sep-23 22:00N 34°35' E 135°27'2 4.8
2017-Sep-23 21:30N 34°36' E 135°24'2 2.4
2017-Sep-23 20:51N 34°36' E 135°22'0 0.1
2017-Sep-23 20:20N 34°36' E 135°22'0 0.0
2017-Sep-23 19:33N 34°36' E 135°22'  

Dump ship's entire track history